Time;durP1;ratioP1;P1;durP2;ratioP2;P2;SDS_P1;SDS_P2;PMS_P1;PMS_P2;Temp;Humidity;BMP_temperature;BMP_pressure;BME280_temperature;BME280_humidity;BME280_pressure;Samples;Min_cycle;Max_cycle;Signal;HPM_P1;HPM_P2
2023/08/19 00:02:07;;;;;;;2.10;2.00;;;24.70;99.90;;;;;;5070270;28;20190;-69
2023/08/19 00:04:34;;;;;;;2.10;2.00;;;24.70;99.90;;;;;;5075567;28;20192;-67
2023/08/19 00:07:02;;;;;;;1.60;1.60;;;24.80;99.90;;;;;;5086524;28;20211;-67
2023/08/19 00:09:34;;;;;;;1.90;1.80;;;24.80;99.90;;;;;;5084268;28;20225;-67
2023/08/19 00:12:02;;;;;;;1.80;1.70;;;24.80;99.90;;;;;;5075478;28;20212;-67
2023/08/19 00:14:29;;;;;;;1.98;1.83;;;24.80;99.90;;;;;;5077259;28;20334;-67
2023/08/19 00:16:57;;;;;;;1.70;1.60;;;24.80;99.90;;;;;;5085431;28;20208;-67
2023/08/19 00:19:24;;;;;;;1.75;1.75;;;24.80;99.90;;;;;;5074112;28;20268;-69
2023/08/19 00:21:51;;;;;;;1.90;1.80;;;24.70;99.90;;;;;;5086743;28;20283;-67
2023/08/19 00:24:18;;;;;;;1.95;1.85;;;24.80;99.90;;;;;;5087905;28;20232;-67
2023/08/19 00:26:47;;;;;;;1.73;1.63;;;24.70;99.90;;;;;;5081772;28;20197;-67
2023/08/19 00:29:14;;;;;;;1.63;1.63;;;24.70;99.90;;;;;;5087748;28;20628;-68
2023/08/19 00:31:41;;;;;;;1.85;1.75;;;24.80;99.90;;;;;;5082908;28;20262;-68
2023/08/19 00:34:08;;;;;;;1.75;1.65;;;24.80;99.90;;;;;;5076163;28;20246;-68
2023/08/19 00:36:36;;;;;;;1.95;1.85;;;24.80;99.90;;;;;;5068473;28;20654;-69
2023/08/19 00:39:03;;;;;;;1.80;1.70;;;24.70;99.90;;;;;;5077699;28;20664;-69
2023/08/19 00:41:33;;;;;;;1.40;1.40;;;24.70;99.90;;;;;;5080269;28;20274;-69
2023/08/19 00:44:03;;;;;;;1.70;1.60;;;24.70;99.90;;;;;;5093179;28;20197;-69
2023/08/19 00:46:31;;;;;;;2.22;2.13;;;24.90;99.90;;;;;;5078063;28;20197;-69
2023/08/19 00:48:59;;;;;;;1.83;1.73;;;24.70;99.90;;;;;;5070003;28;20206;-69
2023/08/19 00:51:27;;;;;;;2.67;1.98;;;24.70;99.90;;;;;;5075935;28;20259;-69
2023/08/19 00:53:55;;;;;;;1.77;1.70;;;24.70;99.90;;;;;;5073224;28;20209;-69
2023/08/19 00:56:22;;;;;;;2.33;2.00;;;24.70;99.90;;;;;;5071497;28;20259;-69
2023/08/19 00:58:49;;;;;;;1.98;1.88;;;24.70;99.90;;;;;;5078897;28;20193;-69
2023/08/19 01:01:18;;;;;;;2.10;1.77;;;24.80;99.90;;;;;;5070426;28;20537;-69
2023/08/19 01:03:45;;;;;;;1.98;1.80;;;24.80;99.90;;;;;;5071757;28;20644;-67
2023/08/19 01:06:24;;;;;;;2.10;2.00;;;24.80;99.90;;;;;;5065115;28;20205;-68
2023/08/19 01:09:01;;;;;;;2.45;2.25;;;24.80;99.90;;;;;;5074192;28;20205;-68
2023/08/19 01:11:45;;;;;;;1.65;1.60;;;24.80;99.90;;;;;;5085542;28;20303;-68
2023/08/19 01:14:23;;;;;;;2.10;1.70;;;24.70;99.90;;;;;;5078730;28;20272;-68
2023/08/19 01:16:54;;;;;;;1.30;1.30;;;24.70;99.90;;;;;;5084912;28;20668;-68
2023/08/19 01:19:29;;;;;;;1.83;1.73;;;24.70;99.90;;;;;;5073254;28;20195;-69
2023/08/19 01:22:01;;;;;;;1.88;1.77;;;24.70;99.90;;;;;;5082142;28;20197;-68
2023/08/19 01:24:34;;;;;;;1.65;1.38;;;24.60;99.90;;;;;;5076655;28;20238;-68
2023/08/19 01:27:03;;;;;;;1.80;1.70;;;24.70;99.90;;;;;;5070312;28;20203;-67
2023/08/19 01:29:30;;;;;;;1.50;1.50;;;24.70;99.90;;;;;;5082474;28;20197;-68
2023/08/19 01:31:58;;;;;;;1.58;1.48;;;24.70;99.90;;;;;;5082657;28;20232;-68
2023/08/19 01:34:26;;;;;;;1.92;1.83;;;24.70;99.90;;;;;;5080656;28;20193;-69
2023/08/19 01:36:59;;;;;;;1.58;1.58;;;24.70;99.90;;;;;;5078437;28;20553;-67
2023/08/19 01:39:29;;;;;;;1.98;1.88;;;24.70;99.90;;;;;;5082290;28;20250;-69
2023/08/19 01:41:58;;;;;;;1.83;1.65;;;24.70;99.90;;;;;;5081169;28;20188;-69
2023/08/19 01:44:26;;;;;;;1.90;1.80;;;24.70;99.90;;;;;;5068471;28;20208;-69
2023/08/19 01:46:54;;;;;;;2.13;1.90;;;24.70;99.90;;;;;;5071844;28;20203;-69
2023/08/19 01:49:21;;;;;;;1.70;1.60;;;24.70;99.90;;;;;;5070601;28;20201;-69
2023/08/19 01:51:49;;;;;;;1.85;1.75;;;24.70;99.90;;;;;;5076083;28;20197;-69
2023/08/19 01:54:16;;;;;;;1.80;1.70;;;24.70;99.90;;;;;;5075359;28;20283;-68
2023/08/19 01:56:43;;;;;;;1.98;1.88;;;24.70;99.90;;;;;;5069917;28;20598;-68
2023/08/19 01:59:11;;;;;;;1.55;1.55;;;24.70;99.90;;;;;;5078822;28;20193;-69
2023/08/19 02:01:38;;;;;;;1.70;1.60;;;24.70;99.90;;;;;;5064903;28;20685;-69
2023/08/19 02:04:06;;;;;;;1.90;1.80;;;24.70;99.90;;;;;;5072414;28;20193;-69
2023/08/19 02:06:33;;;;;;;2.03;1.92;;;24.70;99.90;;;;;;5066407;28;20739;-69
2023/08/19 02:09:01;;;;;;;2.03;1.65;;;24.70;99.90;;;;;;5075383;28;20228;-69
2023/08/19 02:11:28;;;;;;;1.73;1.63;;;24.70;99.90;;;;;;5079636;28;20203;-69
2023/08/19 02:13:56;;;;;;;1.90;1.58;;;24.70;99.90;;;;;;5081916;28;20217;-69
2023/08/19 02:16:24;;;;;;;1.60;1.50;;;24.70;99.90;;;;;;5082552;28;20197;-69
2023/08/19 02:18:51;;;;;;;1.58;1.48;;;24.60;99.90;;;;;;5075922;28;20860;-68
2023/08/19 02:21:19;;;;;;;1.52;1.52;;;24.70;99.90;;;;;;5081588;28;20805;-68
2023/08/19 02:23:47;;;;;;;1.92;1.83;;;24.60;99.90;;;;;;5079393;28;20221;-70
2023/08/19 02:26:14;;;;;;;1.50;1.50;;;24.60;99.90;;;;;;5069043;28;20196;-69
2023/08/19 02:28:41;;;;;;;1.65;1.60;;;24.70;99.90;;;;;;5079216;28;20591;-69
2023/08/19 02:31:09;;;;;;;1.45;1.35;;;24.70;99.90;;;;;;5084450;28;20225;-69
2023/08/19 02:33:38;;;;;;;1.40;1.35;;;24.70;99.90;;;;;;5078512;28;20267;-68
2023/08/19 02:36:06;;;;;;;1.77;1.67;;;24.70;99.90;;;;;;5081605;28;20184;-69
2023/08/19 02:38:33;;;;;;;1.52;1.50;;;24.70;99.90;;;;;;5071969;28;20193;-69
2023/08/19 02:41:00;;;;;;;1.40;1.40;;;24.70;99.90;;;;;;5083016;28;20243;-69
2023/08/19 02:43:27;;;;;;;1.27;1.27;;;24.70;99.90;;;;;;5069867;28;20189;-69
2023/08/19 02:45:54;;;;;;;1.60;1.50;;;24.60;99.90;;;;;;5075924;28;20482;-68
2023/08/19 02:48:21;;;;;;;1.30;1.30;;;24.60;99.90;;;;;;5066657;28;20212;-68
2023/08/19 02:50:53;;;;;;;1.58;1.58;;;24.60;99.90;;;;;;5066927;28;20700;-68
2023/08/19 02:53:20;;;;;;;1.20;1.20;;;24.60;99.90;;;;;;5068695;28;20209;-68
2023/08/19 02:55:48;;;;;;;1.13;1.13;;;24.60;99.90;;;;;;5062834;28;20222;-68
2023/08/19 02:58:15;;;;;;;1.70;1.60;;;24.60;99.90;;;;;;5074241;28;20215;-68
2023/08/19 03:00:42;;;;;;;1.60;1.50;;;24.60;99.90;;;;;;5069188;28;20196;-68
2023/08/19 03:03:10;;;;;;;1.80;1.70;;;24.60;99.90;;;;;;5066377;28;20247;-69
2023/08/19 03:05:38;;;;;;;1.67;1.58;;;24.60;99.90;;;;;;5062016;28;20193;-68
2023/08/19 03:08:08;;;;;;;1.65;1.55;;;24.60;99.90;;;;;;5068296;28;20364;-68
2023/08/19 03:10:35;;;;;;;1.80;1.70;;;24.60;99.90;;;;;;5066986;28;20592;-69
2023/08/19 03:13:02;;;;;;;1.50;1.50;;;24.60;99.90;;;;;;5078477;28;20229;-69
2023/08/19 03:15:30;;;;;;;1.42;1.40;;;24.60;99.90;;;;;;5079586;28;20201;-68
2023/08/19 03:17:57;;;;;;;1.85;1.75;;;24.60;99.90;;;;;;5069290;28;20201;-68
2023/08/19 03:20:24;;;;;;;2.00;1.90;;;24.60;99.90;;;;;;5066547;28;20205;-68
2023/08/19 03:22:51;;;;;;;2.00;1.90;;;24.60;99.90;;;;;;5078280;28;20200;-69
2023/08/19 03:25:20;;;;;;;1.90;1.80;;;24.60;99.90;;;;;;5068360;28;20584;-69
2023/08/19 03:27:47;;;;;;;1.75;1.65;;;24.60;99.90;;;;;;5079214;28;20190;-68
2023/08/19 03:30:14;;;;;;;1.80;1.73;;;24.60;99.90;;;;;;5071097;28;20541;-68
2023/08/19 03:32:41;;;;;;;3.33;2.17;;;24.60;99.90;;;;;;5082130;28;20208;-68
2023/08/19 03:35:09;;;;;;;2.50;2.00;;;24.70;99.90;;;;;;5069482;28;20228;-69
2023/08/19 03:37:36;;;;;;;2.10;2.00;;;24.60;99.90;;;;;;5071447;28;20193;-71
2023/08/19 03:40:04;;;;;;;1.83;1.73;;;24.60;99.90;;;;;;5071798;28;20205;-69
2023/08/19 03:42:32;;;;;;;2.35;2.25;;;24.60;99.90;;;;;;5076450;28;20274;-69
2023/08/19 03:45:00;;;;;;;2.00;1.90;;;24.60;99.90;;;;;;5072120;28;20221;-69
2023/08/19 03:47:27;;;;;;;1.90;1.80;;;24.60;99.90;;;;;;5070876;28;20654;-68
2023/08/19 03:49:54;;;;;;;2.17;2.08;;;24.60;99.90;;;;;;5074728;28;20201;-69
2023/08/19 03:52:23;;;;;;;2.00;1.90;;;24.60;99.90;;;;;;5074318;28;20201;-69
2023/08/19 03:54:51;;;;;;;1.80;1.70;;;24.60;99.90;;;;;;5074411;28;20467;-69
2023/08/19 03:57:18;;;;;;;1.83;1.73;;;24.60;99.90;;;;;;5073098;28;20286;-70
2023/08/19 03:59:51;;;;;;;2.10;2.00;;;24.60;99.90;;;;;;5072511;28;20219;-70
2023/08/19 04:02:19;;;;;;;2.08;1.98;;;24.50;99.90;;;;;;5071795;28;20201;-70
2023/08/19 04:05:00;;;;;;;2.30;1.92;;;24.50;99.90;;;;;;5074846;28;20205;-70
2023/08/19 04:07:27;;;;;;;2.08;1.90;;;24.50;99.90;;;;;;5074240;28;20200;-69
2023/08/19 04:09:55;;;;;;;3.83;2.10;;;24.50;99.90;;;;;;5066347;28;20201;-69
2023/08/19 04:12:23;;;;;;;1.65;1.65;;;24.50;99.90;;;;;;5075933;28;20220;-69
2023/08/19 04:14:52;;;;;;;2.42;2.22;;;24.50;99.90;;;;;;5062948;28;20201;-69
2023/08/19 04:17:19;;;;;;;2.97;2.05;;;24.60;99.90;;;;;;5074716;28;20190;-69
2023/08/19 04:19:46;;;;;;;2.75;2.00;;;24.60;99.90;;;;;;5069685;28;20243;-70
2023/08/19 04:22:14;;;;;;;2.10;2.00;;;24.50;99.90;;;;;;5071722;28;20202;-70
2023/08/19 04:24:41;;;;;;;2.30;2.20;;;24.60;99.90;;;;;;5073163;28;20228;-69
2023/08/19 04:27:08;;;;;;;2.00;1.90;;;24.50;99.90;;;;;;5066983;28;20202;-69
2023/08/19 04:29:36;;;;;;;2.50;2.30;;;24.60;99.90;;;;;;5076302;28;20864;-68
2023/08/19 04:32:05;;;;;;;2.63;2.42;;;24.50;99.90;;;;;;5077992;28;20213;-69
2023/08/19 04:34:34;;;;;;;2.45;2.35;;;24.50;99.90;;;;;;5077595;28;20216;-68
2023/08/19 04:37:03;;;;;;;2.38;2.28;;;24.60;99.90;;;;;;5069574;28;20653;-70
2023/08/19 04:39:32;;;;;;;2.20;2.10;;;24.60;99.90;;;;;;5076811;28;20205;-70
2023/08/19 04:42:07;;;;;;;2.50;2.40;;;24.60;99.90;;;;;;5078534;28;20200;-70
2023/08/19 04:44:34;;;;;;;2.63;2.53;;;24.60;99.90;;;;;;5071646;28;20197;-70
2023/08/19 04:47:04;;;;;;;2.33;2.13;;;24.60;99.90;;;;;;5076197;28;20604;-70
2023/08/19 04:49:32;;;;;;;4.82;2.20;;;24.60;99.90;;;;;;5073525;28;20200;-69
2023/08/19 04:51:59;;;;;;;2.80;2.60;;;24.60;99.90;;;;;;5082855;28;20224;-68
2023/08/19 04:54:26;;;;;;;2.60;2.40;;;24.50;99.90;;;;;;5082176;28;20216;-68
2023/08/19 04:56:53;;;;;;;2.53;2.33;;;24.50;99.90;;;;;;5077732;28;20207;-68
2023/08/19 04:59:21;;;;;;;2.45;2.35;;;24.50;99.90;;;;;;5080839;28;20233;-69
2023/08/19 05:01:48;;;;;;;2.53;2.42;;;24.50;99.90;;;;;;5078336;28;20208;-68
2023/08/19 05:04:17;;;;;;;2.65;2.45;;;24.50;99.90;;;;;;5075761;28;20201;-68
2023/08/19 05:06:45;;;;;;;2.58;2.30;;;24.50;99.90;;;;;;5080879;28;20310;-69
2023/08/19 05:09:12;;;;;;;2.55;2.35;;;24.50;99.90;;;;;;5091225;28;20201;-69
2023/08/19 05:11:40;;;;;;;2.83;2.63;;;24.50;99.90;;;;;;5075597;28;20683;-69
2023/08/19 05:14:09;;;;;;;2.67;2.47;;;24.50;99.90;;;;;;5095426;28;20218;-69
2023/08/19 05:16:36;;;;;;;2.63;2.42;;;24.50;99.90;;;;;;5083499;28;20199;-68
2023/08/19 05:19:17;;;;;;;2.47;2.38;;;24.50;99.90;;;;;;5074910;28;20205;-69
2023/08/19 05:21:46;;;;;;;2.70;2.50;;;24.50;99.90;;;;;;5073473;28;20291;-69
2023/08/19 05:24:13;;;;;;;2.20;2.10;;;24.50;99.90;;;;;;5086506;28;20600;-69
2023/08/19 05:26:41;;;;;;;2.88;2.67;;;24.50;99.90;;;;;;5073456;28;20208;-68
2023/08/19 05:29:08;;;;;;;2.50;2.35;;;24.50;99.90;;;;;;5080931;28;20193;-68
2023/08/19 05:31:35;;;;;;;2.50;2.30;;;24.50;99.90;;;;;;5072948;28;20644;-69
2023/08/19 05:34:02;;;;;;;2.75;2.55;;;24.50;99.90;;;;;;5081169;28;20292;-70
2023/08/19 05:36:31;;;;;;;2.67;2.50;;;24.50;99.90;;;;;;5070894;28;20209;-69
2023/08/19 05:38:58;;;;;;;2.80;2.60;;;24.50;99.90;;;;;;5069692;28;20194;-69
2023/08/19 05:41:26;;;;;;;2.45;2.33;;;24.50;99.90;;;;;;5074906;28;20537;-69
2023/08/19 05:43:53;;;;;;;2.60;2.40;;;24.50;99.90;;;;;;5066692;28;20189;-69
2023/08/19 05:46:20;;;;;;;2.35;2.20;;;24.50;99.90;;;;;;5075116;28;20290;-69
2023/08/19 05:48:47;;;;;;;2.80;2.60;;;24.50;99.90;;;;;;5077910;28;20257;-69
2023/08/19 05:51:14;;;;;;;3.40;2.90;;;24.50;99.90;;;;;;5074173;28;20553;-69
2023/08/19 05:53:43;;;;;;;3.13;2.92;;;24.50;99.90;;;;;;5076882;28;20217;-69
2023/08/19 05:56:10;;;;;;;2.80;2.60;;;24.40;99.90;;;;;;5075426;28;20181;-69
2023/08/19 05:58:38;;;;;;;3.08;2.88;;;24.50;99.90;;;;;;5080658;28;20192;-69
2023/08/19 06:01:06;;;;;;;2.90;2.80;;;24.40;99.90;;;;;;5073206;28;20568;-69
2023/08/19 06:03:34;;;;;;;2.78;2.58;;;24.40;99.90;;;;;;5073320;28;20539;-69
2023/08/19 06:06:04;;;;;;;2.58;2.47;;;24.40;99.90;;;;;;5064925;28;20185;-69
2023/08/19 06:08:32;;;;;;;3.22;3.03;;;24.40;99.90;;;;;;5070554;28;20236;-69
2023/08/19 06:11:02;;;;;;;2.78;2.63;;;24.40;99.90;;;;;;5082147;28;20247;-69
2023/08/19 06:13:30;;;;;;;3.20;2.90;;;24.40;99.90;;;;;;5083180;28;20724;-68
2023/08/19 06:15:57;;;;;;;3.20;3.00;;;24.40;99.90;;;;;;5086050;28;20192;-68
2023/08/19 06:18:24;;;;;;;3.83;3.42;;;24.40;99.90;;;;;;5068262;28;20231;-68
2023/08/19 06:20:52;;;;;;;3.55;3.10;;;24.40;99.90;;;;;;5087767;28;20287;-69
2023/08/19 06:23:20;;;;;;;4.35;3.72;;;24.40;99.90;;;;;;5070164;28;20221;-68
2023/08/19 06:25:48;;;;;;;5.95;3.33;;;24.40;99.90;;;;;;5083315;28;20640;-68
2023/08/19 06:28:17;;;;;;;4.28;3.40;;;24.40;99.90;;;;;;5078594;28;20668;-69
2023/08/19 06:30:45;;;;;;;3.22;3.03;;;24.40;99.90;;;;;;5086838;28;20242;-68
2023/08/19 06:33:13;;;;;;;3.30;2.95;;;24.40;99.90;;;;;;5081459;28;20223;-68
2023/08/19 06:35:40;;;;;;;3.85;3.50;;;24.50;99.90;;;;;;5059210;28;20185;-68
2023/08/19 06:38:17;;;;;;;3.78;3.35;;;24.50;99.90;;;;;;5074448;28;20725;-68
2023/08/19 06:40:55;;;;;;;3.80;3.40;;;24.50;99.90;;;;;;5070325;28;20595;-68
2023/08/19 06:43:26;;;;;;;6.30;3.42;;;24.50;99.90;;;;;;5071169;28;20287;-68
2023/08/19 06:45:55;;;;;;;3.20;3.00;;;24.50;99.90;;;;;;5078019;28;20204;-68
2023/08/19 06:48:23;;;;;;;3.38;3.08;;;24.50;99.90;;;;;;5065555;28;20665;-68
2023/08/19 06:50:51;;;;;;;3.47;3.17;;;24.50;99.90;;;;;;5076165;28;20652;-68
2023/08/19 06:53:18;;;;;;;3.53;3.22;;;24.50;99.90;;;;;;5072187;28;20193;-68
2023/08/19 06:55:54;;;;;;;3.40;3.10;;;24.50;99.90;;;;;;5083292;28;20197;-68
2023/08/19 06:58:29;;;;;;;4.20;3.42;;;24.60;99.90;;;;;;5075081;28;20667;-67
2023/08/19 07:01:01;;;;;;;3.63;3.33;;;24.60;99.90;;;;;;5074419;28;20284;-68
2023/08/19 07:03:32;;;;;;;3.38;3.15;;;24.60;99.90;;;;;;5074631;28;20204;-68
2023/08/19 07:06:00;;;;;;;3.70;3.30;;;24.70;99.90;;;;;;5069803;28;20197;-68
2023/08/19 07:08:30;;;;;;;3.72;3.42;;;24.70;99.90;;;;;;5068488;28;20611;-68
2023/08/19 07:11:00;;;;;;;3.45;3.15;;;24.70;99.90;;;;;;5069209;28;20196;-68
2023/08/19 07:13:29;;;;;;;3.38;3.08;;;24.70;99.90;;;;;;5069428;28;20185;-67
2023/08/19 07:16:01;;;;;;;3.08;2.85;;;24.70;99.90;;;;;;5087356;28;20196;-67
2023/08/19 07:18:34;;;;;;;4.15;2.65;;;24.80;99.90;;;;;;5072904;28;20213;-67
2023/08/19 07:21:04;;;;;;;3.35;3.05;;;24.80;99.90;;;;;;5079091;28;20205;-68
2023/08/19 07:23:31;;;;;;;4.00;3.67;;;24.80;99.90;;;;;;5073000;28;20221;-68
2023/08/19 07:25:59;;;;;;;3.78;3.47;;;24.80;99.90;;;;;;5069493;28;20568;-68
2023/08/19 07:28:27;;;;;;;2.90;2.70;;;24.80;99.90;;;;;;5071983;28;20203;-69
2023/08/19 07:30:56;;;;;;;4.30;3.90;;;24.80;99.90;;;;;;5072782;28;20201;-69
2023/08/19 07:33:23;;;;;;;3.35;3.15;;;24.80;99.90;;;;;;5074967;28;20202;-68
2023/08/19 07:35:51;;;;;;;3.53;3.22;;;24.90;99.90;;;;;;5087195;28;20193;-68
2023/08/19 07:38:18;;;;;;;3.53;3.28;;;24.80;99.90;;;;;;5079605;28;20198;-68
2023/08/19 07:40:46;;;;;;;3.50;3.30;;;24.90;99.90;;;;;;5086398;28;20231;-68
2023/08/19 07:43:13;;;;;;;3.42;3.13;;;24.90;99.90;;;;;;5079191;28;20193;-69
2023/08/19 07:45:41;;;;;;;3.58;3.25;;;24.90;99.90;;;;;;5076042;28;20639;-69
2023/08/19 07:48:09;;;;;;;3.88;3.58;;;24.90;99.90;;;;;;5072982;28;20556;-69
2023/08/19 07:50:36;;;;;;;3.63;3.33;;;24.90;99.90;;;;;;5083651;28;20200;-69
2023/08/19 07:53:04;;;;;;;4.45;4.05;;;24.90;99.90;;;;;;5072568;28;20188;-69
2023/08/19 07:55:31;;;;;;;4.25;3.85;;;25.00;99.90;;;;;;5072744;28;20204;-69
2023/08/19 07:57:58;;;;;;;3.92;3.53;;;25.00;99.90;;;;;;5071233;28;20189;-69
2023/08/19 08:00:25;;;;;;;4.20;3.80;;;25.00;99.90;;;;;;5078119;28;20197;-69
2023/08/19 08:02:52;;;;;;;3.40;3.20;;;25.00;99.90;;;;;;5069920;28;20193;-69
2023/08/19 08:05:21;;;;;;;4.15;3.78;;;25.00;99.90;;;;;;5071689;28;20190;-69
2023/08/19 08:07:48;;;;;;;4.45;4.05;;;25.10;99.90;;;;;;5066565;28;20208;-69
2023/08/19 08:10:15;;;;;;;4.13;3.72;;;25.10;99.90;;;;;;5075846;28;20193;-69
2023/08/19 08:12:42;;;;;;;4.28;3.90;;;25.20;99.90;;;;;;5071451;28;20683;-69
2023/08/19 08:15:10;;;;;;;4.45;4.05;;;25.30;99.90;;;;;;5082214;28;20705;-68
2023/08/19 08:17:37;;;;;;;5.07;4.57;;;25.40;99.90;;;;;;5090194;28;20199;-69
2023/08/19 08:20:05;;;;;;;5.30;4.80;;;25.40;99.90;;;;;;5081025;28;20264;-69
2023/08/19 08:22:33;;;;;;;5.57;5.07;;;25.50;99.90;;;;;;5089482;28;20288;-69
2023/08/19 08:25:02;;;;;;;6.18;5.45;;;25.50;99.90;;;;;;5079003;28;20224;-69
2023/08/19 08:27:29;;;;;;;6.20;5.40;;;25.60;99.90;;;;;;5084820;28;20211;-69
2023/08/19 08:29:56;;;;;;;5.63;5.05;;;25.60;99.90;;;;;;5082790;28;20197;-68
2023/08/19 08:32:23;;;;;;;6.10;5.50;;;25.70;99.90;;;;;;5086855;28;20197;-69
2023/08/19 08:34:50;;;;;;;7.38;6.53;;;25.70;99.90;;;;;;5070892;28;20623;-68
2023/08/19 08:37:17;;;;;;;7.72;6.03;;;25.80;99.90;;;;;;5085210;28;20687;-69
2023/08/19 08:39:46;;;;;;;6.70;6.00;;;25.80;99.90;;;;;;5077858;28;20296;-68
2023/08/19 08:42:15;;;;;;;8.35;7.18;;;25.90;99.90;;;;;;5077250;28;20598;-69
2023/08/19 08:44:44;;;;;;;8.82;6.88;;;25.90;99.90;;;;;;5071455;28;20219;-69
2023/08/19 08:47:12;;;;;;;6.57;5.90;;;26.00;99.90;;;;;;5074840;28;20189;-69
2023/08/19 08:49:40;;;;;;;9.88;7.28;;;26.00;99.90;;;;;;5075077;28;20201;-69
2023/08/19 08:52:08;;;;;;;8.77;6.97;;;26.00;99.90;;;;;;5077452;28;20611;-69
2023/08/19 08:54:37;;;;;;;11.40;7.85;;;26.00;99.90;;;;;;5070243;28;20783;-69
2023/08/19 08:57:06;;;;;;;16.35;10.98;;;26.00;99.90;;;;;;5067597;28;20304;-69
2023/08/19 08:59:33;;;;;;;13.85;10.93;;;26.00;99.90;;;;;;5069034;28;20197;-69
2023/08/19 09:02:01;;;;;;;18.90;13.35;;;26.10;99.90;;;;;;5080670;28;20208;-69
2023/08/19 09:04:29;;;;;;;12.63;9.68;;;26.10;99.90;;;;;;5074157;28;20250;-69
2023/08/19 09:07:04;;;;;;;11.40;9.52;;;26.20;99.90;;;;;;5059610;28;20293;-69
2023/08/19 09:09:35;;;;;;;11.02;9.20;;;26.20;99.90;;;;;;5080641;28;20200;-69
2023/08/19 09:12:09;;;;;;;8.15;7.35;;;26.20;99.90;;;;;;5070950;28;20581;-69
2023/08/19 09:14:40;;;;;;;10.23;8.13;;;26.30;99.90;;;;;;5081172;28;20208;-69
2023/08/19 09:17:08;;;;;;;9.55;8.07;;;26.40;99.90;;;;;;5070464;28;20213;-69
2023/08/19 09:19:35;;;;;;;9.20;7.53;;;26.40;99.90;;;;;;5079913;28;20204;-68
2023/08/19 09:22:10;;;;;;;15.30;11.52;;;26.50;99.90;;;;;;5086851;28;20196;-68
2023/08/19 09:24:37;;;;;;;14.20;10.88;;;26.50;99.90;;;;;;5079023;28;20234;-69
2023/08/19 09:27:06;;;;;;;14.55;11.07;;;26.50;99.90;;;;;;5082504;28;20204;-69
2023/08/19 09:29:34;;;;;;;17.67;12.23;;;26.50;99.90;;;;;;5073338;28;20193;-69
2023/08/19 09:32:02;;;;;;;12.35;10.27;;;26.60;99.90;;;;;;5081418;28;20201;-69
2023/08/19 09:34:32;;;;;;;11.35;9.43;;;26.60;99.90;;;;;;5072903;28;20758;-68
2023/08/19 09:36:59;;;;;;;11.48;8.30;;;26.60;99.90;;;;;;5075310;28;20619;-68
2023/08/19 09:39:34;;;;;;;12.35;9.73;;;26.70;99.90;;;;;;5074647;28;20212;-69
2023/08/19 09:42:02;;;;;;;12.15;9.50;;;26.70;99.90;;;;;;5075496;28;20196;-68
2023/08/19 09:44:30;;;;;;;10.98;8.57;;;26.80;99.90;;;;;;5073375;28;20284;-69
2023/08/19 09:47:00;;;;;;;9.50;7.85;;;26.90;99.90;;;;;;5075991;28;20436;-68
2023/08/19 09:49:27;;;;;;;8.30;7.00;;;27.00;99.90;;;;;;5071598;28;20197;-68
2023/08/19 09:51:55;;;;;;;7.38;6.60;;;27.00;99.90;;;;;;5081370;28;20667;-68
2023/08/19 09:54:22;;;;;;;7.15;6.45;;;27.00;99.90;;;;;;5074534;28;20197;-69
2023/08/19 09:56:55;;;;;;;10.77;7.03;;;27.10;99.90;;;;;;5081619;28;20223;-68
2023/08/19 09:59:22;;;;;;;6.57;5.97;;;27.10;99.90;;;;;;5080861;28;20606;-68
2023/08/19 10:01:51;;;;;;;8.73;7.38;;;27.20;99.90;;;;;;5076752;28;20196;-68
2023/08/19 10:04:20;;;;;;;7.22;6.53;;;27.20;99.90;;;;;;5073886;28;20680;-68
2023/08/19 10:06:49;;;;;;;6.97;6.28;;;27.30;99.90;;;;;;5082231;28;20192;-68
2023/08/19 10:09:18;;;;;;;7.22;6.10;;;27.30;99.90;;;;;;5086965;28;20226;-68
2023/08/19 10:11:48;;;;;;;6.55;5.95;;;27.40;99.90;;;;;;5070414;28;20189;-68
2023/08/19 10:14:16;;;;;;;8.15;7.32;;;27.50;99.90;;;;;;5087894;28;20192;-68
2023/08/19 10:16:49;;;;;;;7.43;6.72;;;27.50;99.90;;;;;;5080464;28;20679;-68
2023/08/19 10:19:21;;;;;;;10.48;7.97;;;27.60;99.90;;;;;;5065983;28;20654;-68
2023/08/19 10:21:50;;;;;;;8.75;7.90;;;27.60;99.90;;;;;;5074920;28;20223;-68
2023/08/19 10:24:18;;;;;;;9.77;8.80;;;27.60;99.90;;;;;;5083817;28;20232;-69
2023/08/19 10:26:48;;;;;;;9.20;8.30;;;27.70;99.90;;;;;;5080752;28;20190;-68
2023/08/19 10:29:15;;;;;;;8.43;7.35;;;27.70;99.90;;;;;;5080632;28;20585;-68
2023/08/19 10:31:43;;;;;;;11.10;7.53;;;27.80;99.90;;;;;;5067892;28;20213;-68
2023/08/19 10:34:11;;;;;;;7.38;6.78;;;27.90;99.90;;;;;;5081191;28;20201;-69
2023/08/19 10:36:40;;;;;;;6.75;6.15;;;27.90;99.90;;;;;;5078280;28;20278;-69
2023/08/19 10:39:16;;;;;;;7.78;6.90;;;27.90;99.90;;;;;;5085627;28;20193;-69
2023/08/19 10:41:43;;;;;;;9.52;8.57;;;28.00;99.90;;;;;;5078663;28;20215;-69
2023/08/19 10:44:12;;;;;;;7.63;6.88;;;28.00;99.90;;;;;;5077762;28;20227;-69
2023/08/19 10:46:41;;;;;;;7.60;6.88;;;28.00;99.90;;;;;;5076100;28;20546;-69
2023/08/19 10:49:12;;;;;;;8.02;7.22;;;28.10;99.90;;;;;;5069386;28;20200;-69
2023/08/19 10:51:48;;;;;;;8.13;7.38;;;28.20;99.90;;;;;;5076166;28;20676;-69
2023/08/19 10:54:15;;;;;;;10.05;8.98;;;28.20;99.90;;;;;;5081678;28;20241;-69
2023/08/19 10:56:53;;;;;;;12.50;8.80;;;28.20;99.90;;;;;;5081749;28;20266;-69
2023/08/19 10:59:21;;;;;;;8.30;7.30;;;28.30;99.90;;;;;;5083238;28;20250;-69
2023/08/19 11:01:48;;;;;;;8.52;7.70;;;28.30;99.90;;;;;;5076994;28;20232;-69
2023/08/19 11:04:16;;;;;;;8.23;7.43;;;28.30;99.90;;;;;;5077604;28;20279;-69
2023/08/19 11:06:43;;;;;;;7.80;7.03;;;28.40;99.90;;;;;;5072851;28;20618;-69
2023/08/19 11:09:11;;;;;;;8.25;7.35;;;28.50;99.90;;;;;;5075120;28;20215;-69
2023/08/19 11:11:39;;;;;;;6.22;5.40;;;28.60;99.90;;;;;;5074597;28;20197;-70
2023/08/19 11:14:07;;;;;;;9.00;8.10;;;28.70;99.90;;;;;;5075184;28;20197;-69
2023/08/19 11:16:35;;;;;;;8.75;7.85;;;28.70;99.90;;;;;;5074409;28;20275;-69
2023/08/19 11:19:05;;;;;;;6.85;6.25;;;28.70;99.90;;;;;;5070584;28;20251;-69
2023/08/19 11:21:32;;;;;;;6.43;5.85;;;28.70;99.90;;;;;;5072553;28;20205;-69
2023/08/19 11:23:59;;;;;;;5.85;5.38;;;28.80;99.90;;;;;;5073676;28;20241;-69
2023/08/19 11:26:28;;;;;;;5.75;5.35;;;28.90;99.90;;;;;;5073736;28;20193;-69
2023/08/19 11:28:55;;;;;;;5.45;4.95;;;28.90;99.90;;;;;;5071363;28;20220;-69
2023/08/19 11:31:22;;;;;;;5.38;4.97;;;28.90;99.90;;;;;;5080907;28;20659;-69
2023/08/19 11:33:49;;;;;;;6.22;4.93;;;28.90;99.90;;;;;;5072763;28;20199;-69
2023/08/19 11:36:17;;;;;;;4.65;4.35;;;28.90;99.90;;;;;;5085559;28;20262;-69
2023/08/19 11:38:44;;;;;;;4.38;4.07;;;28.90;99.90;;;;;;5084489;28;20239;-69
2023/08/19 11:41:11;;;;;;;5.03;4.63;;;28.90;99.90;;;;;;5079347;28;20212;-69
2023/08/19 11:43:46;;;;;;;4.50;4.20;;;28.80;99.90;;;;;;5083351;28;20197;-69
2023/08/19 11:46:13;;;;;;;4.38;4.07;;;28.90;99.90;;;;;;5077209;28;20196;-69
2023/08/19 11:48:41;;;;;;;4.90;4.50;;;28.90;99.90;;;;;;5081858;28;20602;-69
2023/08/19 11:51:11;;;;;;;5.03;4.63;;;28.80;99.90;;;;;;5075147;28;20250;-69
2023/08/19 11:53:40;;;;;;;4.70;4.30;;;28.80;99.90;;;;;;5083144;28;20205;-69
2023/08/19 11:56:08;;;;;;;4.63;4.30;;;28.80;99.90;;;;;;5076607;28;20213;-69
2023/08/19 11:58:42;;;;;;;4.40;4.10;;;28.80;99.90;;;;;;5077859;28;20204;-69
2023/08/19 12:01:11;;;;;;;4.28;3.97;;;28.80;99.90;;;;;;5074286;28;20200;-69
2023/08/19 12:03:42;;;;;;;6.97;4.32;;;28.70;99.90;;;;;;5075593;28;20204;-69
2023/08/19 12:06:10;;;;;;;5.13;4.72;;;28.70;99.90;;;;;;5075015;28;20200;-69
2023/08/19 12:08:40;;;;;;;4.85;4.47;;;28.70;99.90;;;;;;5061868;28;20301;-69
2023/08/19 12:11:08;;;;;;;4.88;4.57;;;28.70;99.90;;;;;;5075180;28;20204;-69
2023/08/19 12:13:36;;;;;;;4.60;4.13;;;28.60;99.90;;;;;;5085079;28;20202;-69
2023/08/19 12:16:04;;;;;;;4.70;4.40;;;28.60;99.90;;;;;;5086960;28;20210;-69
2023/08/19 12:18:33;;;;;;;4.65;4.32;;;28.50;99.90;;;;;;5084311;28;20228;-69
2023/08/19 12:21:02;;;;;;;4.05;3.85;;;28.50;99.90;;;;;;5086212;28;20548;-69
2023/08/19 12:23:30;;;;;;;4.50;4.10;;;28.50;99.90;;;;;;5085992;28;20261;-69
2023/08/19 12:25:58;;;;;;;5.03;4.63;;;28.50;99.90;;;;;;5083028;28;20193;-69
2023/08/19 12:28:28;;;;;;;4.65;4.35;;;28.50;99.90;;;;;;5072513;28;20215;-69
2023/08/19 12:30:55;;;;;;;4.80;4.47;;;28.50;99.90;;;;;;5087990;28;20605;-69
2023/08/19 12:33:24;;;;;;;4.22;3.92;;;28.50;99.90;;;;;;5083431;28;20205;-69
2023/08/19 12:35:54;;;;;;;4.60;4.30;;;28.50;99.90;;;;;;5086649;28;20323;-69
2023/08/19 12:38:22;;;;;;;5.10;4.65;;;28.40;99.90;;;;;;5084190;28;20197;-69
2023/08/19 12:40:49;;;;;;;5.13;4.75;;;28.40;99.90;;;;;;5086857;28;20732;-69
2023/08/19 12:43:16;;;;;;;4.40;4.10;;;28.40;99.90;;;;;;5083297;28;20193;-69
2023/08/19 12:45:44;;;;;;;5.10;4.70;;;28.40;99.90;;;;;;5077629;28;20237;-69
2023/08/19 12:48:11;;;;;;;4.93;4.53;;;28.40;99.90;;;;;;5075645;28;20564;-69
2023/08/19 12:50:38;;;;;;;5.15;4.75;;;28.20;99.90;;;;;;5085866;28;20200;-69
2023/08/19 12:53:07;;;;;;;5.07;4.68;;;28.40;99.90;;;;;;5074591;28;20246;-69